Time;durP1;ratioP1;P1;durP2;ratioP2;P2;SDS_P1;SDS_P2;PMS_P1;PMS_P2;Temp;Humidity;BMP_temperature;BMP_pressure;BME280_temperature;BME280_humidity;BME280_pressure;Samples;Min_cycle;Max_cycle;Signal;HPM_P1;HPM_P2
2023/09/03 00:01:16;;;;;;;15.30;10.10;;;17.80;99.90;;;;;;5053346;28;20201;-72
2023/09/03 00:03:41;;;;;;;15.63;10.63;;;17.80;99.90;;;;;;5052079;28;20240;-71
2023/09/03 00:06:07;;;;;;;13.00;10.00;;;17.80;99.90;;;;;;5053019;28;20659;-72
2023/09/03 00:08:32;;;;;;;13.07;9.70;;;17.80;99.90;;;;;;5053502;28;20171;-72
2023/09/03 00:10:58;;;;;;;16.93;11.50;;;17.70;99.90;;;;;;5053206;28;20163;-72
2023/09/03 00:13:24;;;;;;;16.63;11.23;;;17.70;99.90;;;;;;5038653;28;20672;-71
2023/09/03 00:15:49;;;;;;;13.80;11.13;;;17.70;99.90;;;;;;5032846;28;20194;-71
2023/09/03 00:18:15;;;;;;;16.87;11.70;;;17.70;99.90;;;;;;5032710;28;20213;-72
2023/09/03 00:20:41;;;;;;;23.60;12.50;;;17.60;99.90;;;;;;5032719;28;20164;-71
2023/09/03 00:23:08;;;;;;;16.03;11.83;;;17.60;99.90;;;;;;5032490;28;20195;-71
2023/09/03 00:25:38;;;;;;;16.87;11.00;;;17.60;99.90;;;;;;5032352;28;20398;-72
2023/09/03 00:28:04;;;;;;;13.57;10.40;;;17.50;99.90;;;;;;5031910;28;20499;-71
2023/09/03 00:30:30;;;;;;;16.47;11.90;;;17.50;99.90;;;;;;5032479;28;21093;-72
2023/09/03 00:32:55;;;;;;;17.00;12.17;;;17.50;99.90;;;;;;5032380;28;20425;-72
2023/09/03 00:35:21;;;;;;;17.20;12.20;;;17.50;99.90;;;;;;5032179;28;20253;-72
2023/09/03 00:37:46;;;;;;;14.27;10.23;;;17.50;99.90;;;;;;5032183;28;20182;-71
2023/09/03 00:40:12;;;;;;;20.37;12.10;;;17.40;99.90;;;;;;5032100;28;20171;-71
2023/09/03 00:42:38;;;;;;;17.23;10.70;;;17.40;99.90;;;;;;5032320;28;20203;-70
2023/09/03 00:45:04;;;;;;;16.00;12.67;;;17.30;99.90;;;;;;5043028;28;20246;-71
2023/09/03 00:47:30;;;;;;;18.07;11.53;;;17.30;99.90;;;;;;5052199;28;20167;-71
2023/09/03 00:49:56;;;;;;;16.50;12.40;;;17.30;99.90;;;;;;5052474;28;20405;-71
2023/09/03 00:52:24;;;;;;;15.90;11.90;;;17.20;99.90;;;;;;5052222;28;20546;-71
2023/09/03 00:54:50;;;;;;;19.67;12.87;;;17.20;99.90;;;;;;5052042;28;20571;-70
2023/09/03 00:57:16;;;;;;;20.87;11.83;;;17.20;99.90;;;;;;5051710;28;20856;-71
2023/09/03 00:59:44;;;;;;;17.13;12.53;;;17.10;99.90;;;;;;5051836;28;20433;-71
2023/09/03 01:02:12;;;;;;;22.27;14.00;;;17.20;99.90;;;;;;5050317;28;20698;-73
2023/09/03 01:04:39;;;;;;;16.37;12.57;;;17.10;99.90;;;;;;5051490;28;20454;-71
2023/09/03 01:07:06;;;;;;;14.77;11.80;;;17.10;99.90;;;;;;5051333;28;20903;-71
2023/09/03 01:09:31;;;;;;;18.27;12.37;;;17.00;99.90;;;;;;5051863;28;20440;-72
2023/09/03 01:12:15;;;;;;;16.53;12.90;;;17.00;99.90;;;;;;5051903;28;20831;-71
2023/09/03 01:15:06;;;;;;;20.40;12.27;;;17.00;99.90;;;;;;5051930;28;20257;-71
2023/09/03 01:17:56;;;;;;;19.60;12.83;;;17.00;99.90;;;;;;5051850;28;20766;-71
2023/09/03 01:20:30;;;;;;;23.23;15.13;;;16.90;99.90;;;;;;5051692;28;20496;-71
2023/09/03 01:23:19;;;;;;;20.83;13.63;;;16.90;99.90;;;;;;5050278;28;20979;-72
2023/09/03 01:26:15;;;;;;;22.80;15.60;;;16.90;99.90;;;;;;5041173;28;20479;-71
2023/09/03 01:28:42;;;;;;;17.13;12.67;;;16.80;99.90;;;;;;5051986;28;20855;-72
2023/09/03 01:31:18;;;;;;;20.50;13.50;;;16.90;99.90;;;;;;5051712;28;20476;-71
2023/09/03 01:33:46;;;;;;;19.90;14.07;;;16.80;99.90;;;;;;5051591;28;20428;-71
2023/09/03 01:36:13;;;;;;;24.43;14.30;;;16.80;99.90;;;;;;5051342;28;20817;-71
2023/09/03 01:38:40;;;;;;;25.37;16.07;;;16.80;99.90;;;;;;5053863;28;20767;-72
2023/09/03 01:41:06;;;;;;;20.43;15.07;;;16.80;99.90;;;;;;5055654;28;20389;-72
2023/09/03 01:43:33;;;;;;;23.10;15.37;;;16.80;99.90;;;;;;5039059;28;20492;-73
2023/09/03 01:46:08;;;;;;;17.90;14.20;;;16.80;99.90;;;;;;5044944;28;20411;-72
2023/09/03 01:49:14;;;;;;;20.17;13.97;;;16.70;99.90;;;;;;5052081;28;20407;-71
2023/09/03 01:52:10;;;;;;;22.27;16.67;;;16.70;99.90;;;;;;5051408;28;20896;-72
2023/09/03 01:54:41;;;;;;;24.60;15.80;;;16.70;99.90;;;;;;5055452;28;20459;-72
2023/09/03 01:57:25;;;;;;;21.97;14.53;;;16.70;99.90;;;;;;5053684;28;20421;-72
2023/09/03 02:00:00;;;;;;;26.97;16.47;;;16.60;99.90;;;;;;5055056;28;20394;-73
2023/09/03 02:02:28;;;;;;;26.53;19.00;;;16.60;99.90;;;;;;5055600;28;20794;-73
2023/09/03 02:04:54;;;;;;;31.63;17.70;;;16.60;99.90;;;;;;5056700;28;20397;-71
2023/09/03 02:07:20;;;;;;;24.10;17.63;;;16.60;99.90;;;;;;5055833;28;20934;-73
2023/09/03 02:09:46;;;;;;;26.27;16.73;;;16.60;99.90;;;;;;5053902;28;20416;-72
2023/09/03 02:12:11;;;;;;;29.90;18.10;;;16.60;99.90;;;;;;5055427;28;20656;-73
2023/09/03 02:14:38;;;;;;;23.53;16.23;;;16.60;99.90;;;;;;5055861;28;20197;-73
2023/09/03 02:17:04;;;;;;;26.37;17.03;;;16.60;99.90;;;;;;5054054;28;20496;-73
2023/09/03 02:19:29;;;;;;;24.53;16.73;;;16.60;99.90;;;;;;5054358;28;20261;-73
2023/09/03 02:21:55;;;;;;;27.90;15.73;;;16.70;99.90;;;;;;5055788;28;20169;-72
2023/09/03 02:24:20;;;;;;;26.37;16.80;;;16.70;99.90;;;;;;5054758;28;20209;-72
2023/09/03 02:26:46;;;;;;;21.67;14.03;;;16.70;99.90;;;;;;5054523;28;20175;-72
2023/09/03 02:29:13;;;;;;;22.43;15.93;;;16.70;99.90;;;;;;5054737;28;20205;-72
2023/09/03 02:31:39;;;;;;;26.57;17.93;;;16.70;99.90;;;;;;5054709;28;20405;-72
2023/09/03 02:34:05;;;;;;;24.80;16.07;;;16.70;99.90;;;;;;5054618;28;20425;-72
2023/09/03 02:36:33;;;;;;;25.47;17.20;;;16.70;99.90;;;;;;5054318;28;20416;-73
2023/09/03 02:39:00;;;;;;;21.07;17.53;;;16.70;99.90;;;;;;5055063;28;20414;-73
2023/09/03 02:41:27;;;;;;;26.43;18.17;;;16.70;99.90;;;;;;5054906;28;20828;-73
2023/09/03 02:43:52;;;;;;;28.20;17.93;;;16.70;99.90;;;;;;5041096;28;20527;-73
2023/09/03 02:46:18;;;;;;;22.67;18.03;;;16.70;99.90;;;;;;5050822;28;20417;-73
2023/09/03 02:48:43;;;;;;;28.47;16.37;;;16.70;99.90;;;;;;5054663;28;20693;-72
2023/09/03 02:51:09;;;;;;;25.30;15.67;;;16.70;99.90;;;;;;5051299;28;20202;-73
2023/09/03 02:53:34;;;;;;;24.33;16.70;;;16.70;99.90;;;;;;5052824;28;20281;-73
2023/09/03 02:56:00;;;;;;;23.27;16.10;;;16.70;99.90;;;;;;5053905;28;20178;-73
2023/09/03 02:58:26;;;;;;;22.73;16.30;;;16.70;99.90;;;;;;5054163;28;20170;-73
2023/09/03 03:00:51;;;;;;;24.20;15.90;;;16.70;99.90;;;;;;5054650;28;20175;-73
2023/09/03 03:03:17;;;;;;;28.77;18.00;;;16.70;99.90;;;;;;5053687;28;20190;-73
2023/09/03 03:05:42;;;;;;;28.50;17.07;;;16.70;99.90;;;;;;5053710;28;20246;-73
2023/09/03 03:08:08;;;;;;;25.40;16.80;;;16.70;99.90;;;;;;5054094;28;20167;-73
2023/09/03 03:10:34;;;;;;;26.17;16.00;;;16.60;99.90;;;;;;5054552;28;20162;-72
2023/09/03 03:12:59;;;;;;;34.73;19.30;;;16.60;99.90;;;;;;5054424;28;20629;-72
2023/09/03 03:15:25;;;;;;;27.40;15.50;;;16.60;99.90;;;;;;5054200;28;20213;-71
2023/09/03 03:17:51;;;;;;;28.37;17.70;;;16.60;99.90;;;;;;5053749;28;20205;-71
2023/09/03 03:20:16;;;;;;;25.40;16.33;;;16.50;99.90;;;;;;5053878;28;20208;-73
2023/09/03 03:22:42;;;;;;;24.53;17.53;;;16.50;99.90;;;;;;5053722;28;20203;-71
2023/09/03 03:25:08;;;;;;;29.20;16.97;;;16.50;99.90;;;;;;5054231;28;20632;-74
2023/09/03 03:27:34;;;;;;;30.37;18.77;;;16.50;99.90;;;;;;5054594;28;20463;-74
2023/09/03 03:29:59;;;;;;;29.70;19.30;;;16.50;99.90;;;;;;5053823;28;20465;-73
2023/09/03 03:32:25;;;;;;;33.10;18.50;;;16.50;99.90;;;;;;5043451;28;20186;-71
2023/09/03 03:34:50;;;;;;;29.60;19.33;;;16.50;99.90;;;;;;5050587;28;20183;-69
2023/09/03 03:37:16;;;;;;;27.20;19.17;;;16.50;99.90;;;;;;5054325;28;20170;-71
2023/09/03 03:39:41;;;;;;;30.27;19.53;;;16.50;99.90;;;;;;5054051;28;20169;-74
2023/09/03 03:42:07;;;;;;;32.60;19.17;;;16.50;99.90;;;;;;5050924;28;20167;-74
2023/09/03 03:44:34;;;;;;;33.10;20.73;;;16.50;99.90;;;;;;5038350;28;20210;-73
2023/09/03 03:46:59;;;;;;;43.00;21.80;;;16.50;99.90;;;;;;5050726;28;20170;-70
2023/09/03 03:49:25;;;;;;;30.47;20.40;;;16.50;99.90;;;;;;5047297;28;20414;-70
2023/09/03 03:51:51;;;;;;;33.00;21.53;;;16.40;99.90;;;;;;5053268;28;20174;-71
2023/09/03 03:54:16;;;;;;;33.67;20.53;;;16.40;99.90;;;;;;5053360;28;20194;-73
2023/09/03 03:56:42;;;;;;;31.03;21.23;;;16.40;99.90;;;;;;5053093;28;20171;-72
2023/09/03 03:59:07;;;;;;;28.67;19.20;;;16.40;99.90;;;;;;5053878;28;20179;-72
2023/09/03 04:01:33;;;;;;;29.50;19.53;;;16.40;99.90;;;;;;5051970;28;20171;-72
2023/09/03 04:03:59;;;;;;;26.87;18.07;;;16.40;99.90;;;;;;5052745;28;20686;-72
2023/09/03 04:06:27;;;;;;;31.00;20.00;;;16.40;99.90;;;;;;5052309;28;20216;-72
2023/09/03 04:08:52;;;;;;;32.70;20.20;;;16.40;99.90;;;;;;5052877;28;20207;-71
2023/09/03 04:11:19;;;;;;;29.57;19.70;;;16.40;99.90;;;;;;5046997;28;20418;-72
2023/09/03 04:13:44;;;;;;;30.17;20.27;;;16.40;99.90;;;;;;5036389;28;20257;-72
2023/09/03 04:16:14;;;;;;;27.73;21.10;;;16.30;99.90;;;;;;5045898;28;20422;-72
2023/09/03 04:18:41;;;;;;;32.80;20.93;;;16.30;99.90;;;;;;5051272;28;20187;-72
2023/09/03 04:21:07;;;;;;;33.30;20.27;;;16.30;99.90;;;;;;5044248;28;20467;-72
2023/09/03 04:23:32;;;;;;;29.30;20.17;;;16.30;99.90;;;;;;5044199;28;21053;-72
2023/09/03 04:25:58;;;;;;;33.47;20.47;;;16.30;99.90;;;;;;5048269;28;20934;-71
2023/09/03 04:28:24;;;;;;;35.60;19.90;;;16.30;99.90;;;;;;5047534;28;20548;-74
2023/09/03 04:30:54;;;;;;;35.07;20.27;;;16.30;99.90;;;;;;5052309;28;20170;-71
2023/09/03 04:33:20;;;;;;;28.10;17.53;;;16.30;99.90;;;;;;5052295;28;20808;-72
2023/09/03 04:35:46;;;;;;;31.40;19.63;;;16.30;99.90;;;;;;5052188;28;20428;-72
2023/09/03 04:38:12;;;;;;;32.57;18.80;;;16.30;99.90;;;;;;5052367;28;20445;-72
2023/09/03 04:40:38;;;;;;;25.83;18.40;;;16.30;99.90;;;;;;5052357;28;20811;-72
2023/09/03 04:43:05;;;;;;;29.87;19.30;;;16.30;99.90;;;;;;5045933;28;20215;-72
2023/09/03 04:45:31;;;;;;;30.90;19.53;;;16.30;99.90;;;;;;5051237;28;20467;-72
2023/09/03 04:47:58;;;;;;;32.23;18.20;;;16.30;99.90;;;;;;5050521;28;20763;-72
2023/09/03 04:50:25;;;;;;;27.87;17.30;;;16.30;99.90;;;;;;5052030;28;20856;-72
2023/09/03 04:52:54;;;;;;;28.97;18.40;;;16.30;99.90;;;;;;5051858;28;20441;-71
2023/09/03 04:55:19;;;;;;;32.13;19.47;;;16.20;99.90;;;;;;5051787;28;20401;-72
2023/09/03 04:57:45;;;;;;;32.47;20.30;;;16.20;99.90;;;;;;5052029;28;20459;-72
2023/09/03 05:00:11;;;;;;;25.53;18.63;;;16.20;99.90;;;;;;5052108;28;20281;-72
2023/09/03 05:02:36;;;;;;;28.87;18.47;;;16.20;99.90;;;;;;5051735;28;20283;-72
2023/09/03 05:05:02;;;;;;;30.60;19.67;;;16.10;99.90;;;;;;5046511;28;20921;-72
2023/09/03 05:07:28;;;;;;;29.07;18.30;;;16.10;99.90;;;;;;5043930;28;20210;-72
2023/09/03 05:09:55;;;;;;;27.63;19.67;;;16.10;99.90;;;;;;5051303;28;20429;-72
2023/09/03 05:12:21;;;;;;;28.87;18.20;;;16.10;99.90;;;;;;5051494;28;20502;-72
2023/09/03 05:14:47;;;;;;;28.67;16.70;;;16.10;99.90;;;;;;5052003;28;20832;-72
2023/09/03 05:17:12;;;;;;;33.90;20.80;;;16.10;99.90;;;;;;5051588;28;20493;-72
2023/09/03 05:19:39;;;;;;;27.43;19.90;;;16.10;99.90;;;;;;5051789;28;20171;-72
2023/09/03 05:22:04;;;;;;;30.77;19.77;;;16.10;99.90;;;;;;5051847;28;20641;-71
2023/09/03 05:24:30;;;;;;;33.47;21.97;;;16.10;99.90;;;;;;5051585;28;20591;-72
2023/09/03 05:26:55;;;;;;;30.53;20.87;;;16.20;99.90;;;;;;5050073;28;20167;-71
2023/09/03 05:29:21;;;;;;;36.37;22.80;;;16.30;99.90;;;;;;5051736;28;20171;-72
2023/09/03 05:31:47;;;;;;;35.77;21.17;;;16.30;99.90;;;;;;5051572;28;20167;-72
2023/09/03 05:34:12;;;;;;;35.53;20.57;;;16.50;99.90;;;;;;5051602;28;20201;-72
2023/09/03 05:36:39;;;;;;;30.27;19.77;;;16.60;99.90;;;;;;5050249;28;20636;-71
2023/09/03 05:39:04;;;;;;;29.57;19.87;;;16.70;99.90;;;;;;5050301;28;20170;-72
2023/09/03 05:41:31;;;;;;;34.73;20.40;;;16.80;99.90;;;;;;5051574;28;20408;-72
2023/09/03 05:43:57;;;;;;;30.13;19.10;;;16.90;99.90;;;;;;5042679;28;20680;-72
2023/09/03 05:46:23;;;;;;;30.60;17.97;;;17.00;99.90;;;;;;5039454;28;20425;-72
2023/09/03 05:48:50;;;;;;;27.97;19.07;;;17.20;99.90;;;;;;5050226;28;20409;-72
2023/09/03 05:51:16;;;;;;;33.40;19.63;;;17.30;99.90;;;;;;5051540;28;20408;-71
2023/09/03 05:53:41;;;;;;;30.87;19.83;;;17.40;99.90;;;;;;5051396;28;20820;-72
2023/09/03 05:56:11;;;;;;;31.40;17.63;;;17.50;99.90;;;;;;5051188;28;20506;-72
2023/09/03 05:58:38;;;;;;;32.87;19.93;;;17.70;99.90;;;;;;5051535;28;20572;-72
2023/09/03 06:01:08;;;;;;;28.20;20.57;;;17.80;99.90;;;;;;5050141;28;20413;-72
2023/09/03 06:03:34;;;;;;;32.97;20.93;;;17.90;99.90;;;;;;5051276;28;20460;-72
2023/09/03 06:06:07;;;;;;;32.10;20.97;;;18.00;99.90;;;;;;5050934;28;20417;-72
2023/09/03 06:08:35;;;;;;;30.13;19.10;;;18.20;99.90;;;;;;5051306;28;20413;-71
2023/09/03 06:11:01;;;;;;;31.43;18.50;;;18.30;99.90;;;;;;5051414;28;20798;-71
2023/09/03 06:13:27;;;;;;;29.37;19.03;;;18.40;99.90;;;;;;5051283;28;20425;-71
2023/09/03 06:15:54;;;;;;;29.03;18.57;;;18.50;99.90;;;;;;5051071;28;20247;-72
2023/09/03 06:18:19;;;;;;;29.43;19.57;;;18.60;99.90;;;;;;5049870;28;20405;-72
2023/09/03 06:20:45;;;;;;;29.30;19.90;;;18.70;99.90;;;;;;5051024;28;20432;-71
2023/09/03 06:23:15;;;;;;;32.47;20.67;;;18.80;99.90;;;;;;5051109;28;20687;-72
2023/09/03 06:25:42;;;;;;;30.63;19.90;;;19.00;99.90;;;;;;5052751;28;20191;-71
2023/09/03 06:28:07;;;;;;;27.10;19.27;;;19.20;99.90;;;;;;5054808;28;20802;-72
2023/09/03 06:30:33;;;;;;;25.70;17.53;;;19.50;99.90;;;;;;5045790;28;20418;-72
2023/09/03 06:32:58;;;;;;;29.83;18.90;;;19.70;99.90;;;;;;5046184;28;20553;-72
2023/09/03 06:35:25;;;;;;;28.90;19.73;;;20.00;99.90;;;;;;5042532;28;20263;-72
2023/09/03 06:37:50;;;;;;;23.43;16.50;;;20.20;99.90;;;;;;5053466;28;20187;-72
2023/09/03 06:40:16;;;;;;;21.50;16.53;;;20.50;99.90;;;;;;5054366;28;20825;-73
2023/09/03 06:42:42;;;;;;;21.53;15.80;;;20.70;99.90;;;;;;5050610;28;20210;-71
2023/09/03 06:45:08;;;;;;;22.93;16.53;;;20.70;99.90;;;;;;5035097;28;20505;-72
2023/09/03 06:47:34;;;;;;;19.67;13.47;;;20.80;99.90;;;;;;5051069;28;20174;-71
2023/09/03 06:49:59;;;;;;;22.90;15.60;;;20.80;99.90;;;;;;5054311;28;20401;-71
2023/09/03 06:52:25;;;;;;;18.90;15.43;;;20.90;99.90;;;;;;5054308;28;20191;-72
2023/09/03 06:54:50;;;;;;;23.90;14.90;;;20.90;99.90;;;;;;5054277;28;20171;-72
2023/09/03 06:57:16;;;;;;;17.03;13.63;;;21.00;99.90;;;;;;5054021;28;20167;-72
2023/09/03 06:59:42;;;;;;;19.73;15.30;;;21.10;99.90;;;;;;5054158;28;20505;-71
2023/09/03 07:02:08;;;;;;;20.90;15.27;;;21.10;99.90;;;;;;5053881;28;20167;-72
2023/09/03 07:04:35;;;;;;;20.13;13.53;;;21.10;99.90;;;;;;5053908;28;20289;-73
2023/09/03 07:07:01;;;;;;;28.47;15.80;;;21.10;99.90;;;;;;5052333;28;20428;-71
2023/09/03 07:09:29;;;;;;;21.93;14.37;;;21.20;99.90;;;;;;5054079;28;20409;-72
2023/09/03 07:11:54;;;;;;;24.00;16.63;;;21.30;99.90;;;;;;5053868;28;20402;-71
2023/09/03 07:14:20;;;;;;;22.47;15.73;;;21.50;99.90;;;;;;5052710;28;20828;-72
2023/09/03 07:16:45;;;;;;;18.03;13.63;;;21.60;99.90;;;;;;5040873;28;20812;-72
2023/09/03 07:19:11;;;;;;;17.80;13.43;;;21.70;99.90;;;;;;5049825;28;20179;-72
2023/09/03 07:21:36;;;;;;;21.97;15.10;;;21.90;99.90;;;;;;5053584;28;20179;-72
2023/09/03 07:24:02;;;;;;;22.63;14.27;;;22.00;99.90;;;;;;5053560;28;20757;-73
2023/09/03 07:26:28;;;;;;;17.90;14.80;;;22.10;99.90;;;;;;5053296;28;20159;-72
2023/09/03 07:28:53;;;;;;;21.80;16.10;;;22.20;99.90;;;;;;5053701;28;20502;-72
2023/09/03 07:31:19;;;;;;;21.43;16.53;;;22.20;99.90;;;;;;5053610;28;20167;-72
2023/09/03 07:33:44;;;;;;;20.90;15.23;;;22.20;99.90;;;;;;5053449;28;20198;-72
2023/09/03 07:36:11;;;;;;;22.20;16.10;;;22.20;99.90;;;;;;5053125;28;20163;-72
2023/09/03 07:38:37;;;;;;;17.63;14.37;;;22.40;99.90;;;;;;5053518;28;20163;-72
2023/09/03 07:41:03;;;;;;;20.70;14.43;;;22.50;99.90;;;;;;5052112;28;20922;-72
2023/09/03 07:43:29;;;;;;;18.57;14.23;;;22.60;99.90;;;;;;5044420;28;20470;-71
2023/09/03 07:45:55;;;;;;;16.13;14.40;;;22.80;99.90;;;;;;5052136;28;20852;-72
2023/09/03 07:48:21;;;;;;;19.70;14.17;;;22.90;99.90;;;;;;5053159;28;20399;-71
2023/09/03 07:50:46;;;;;;;18.60;13.73;;;22.90;99.90;;;;;;5034652;28;20684;-72
2023/09/03 07:53:12;;;;;;;33.17;20.50;;;23.00;99.90;;;;;;5041860;28;20195;-72
2023/09/03 07:55:37;;;;;;;25.07;17.10;;;22.50;99.90;;;;;;5049775;28;20203;-71
2023/09/03 07:58:03;;;;;;;28.00;19.67;;;22.40;99.90;;;;;;5053113;28;20178;-72
2023/09/03 08:00:29;;;;;;;32.23;20.43;;;22.50;99.90;;;;;;5053114;28;20258;-73
2023/09/03 08:02:54;;;;;;;27.07;18.57;;;22.30;99.90;;;;;;5052961;28;20668;-73
2023/09/03 08:05:20;;;;;;;23.27;16.10;;;22.30;99.90;;;;;;5051508;28;20163;-71
2023/09/03 08:07:46;;;;;;;32.63;22.47;;;22.50;99.90;;;;;;5051403;28;20187;-71
2023/09/03 08:10:12;;;;;;;23.30;18.63;;;22.50;99.90;;;;;;5052871;28;20413;-72
2023/09/03 08:12:37;;;;;;;25.77;19.13;;;22.60;99.90;;;;;;5052740;28;20182;-71
2023/09/03 08:15:03;;;;;;;32.77;21.00;;;22.70;99.90;;;;;;5052635;28;20159;-71
2023/09/03 08:17:31;;;;;;;29.80;21.93;;;22.90;99.90;;;;;;5052812;28;20293;-71
2023/09/03 08:19:56;;;;;;;25.03;18.93;;;22.90;99.90;;;;;;5052733;28;20499;-70
2023/09/03 08:22:22;;;;;;;25.43;19.13;;;23.10;99.90;;;;;;5039664;28;20453;-73
2023/09/03 08:24:47;;;;;;;20.50;16.37;;;23.40;99.90;;;;;;5044794;28;20273;-69
2023/09/03 08:27:14;;;;;;;18.27;15.53;;;23.70;99.90;;;;;;5052396;28;20171;-70
2023/09/03 08:29:39;;;;;;;29.07;22.73;;;24.10;99.90;;;;;;5052406;28;20176;-70
2023/09/03 08:32:05;;;;;;;25.47;18.80;;;24.60;99.90;;;;;;5052533;28;20409;-69
2023/09/03 08:34:31;;;;;;;24.07;18.20;;;25.00;99.90;;;;;;5062330;28;20208;-69
2023/09/03 08:36:56;;;;;;;24.30;19.70;;;25.80;99.90;;;;;;5071887;28;20224;-70
2023/09/03 08:39:22;;;;;;;20.37;17.37;;;27.30;99.90;;;;;;5059687;28;20178;-69
2023/09/03 08:41:48;;;;;;;23.27;18.10;;;28.30;99.90;;;;;;5046293;28;20186;-69
2023/09/03 08:44:41;;;;;;;14.93;13.17;;;28.60;99.90;;;;;;5037542;28;20298;-70
2023/09/03 08:47:11;;;;;;;17.10;14.27;;;29.90;99.90;;;;;;5044497;28;20417;-71
2023/09/03 08:49:39;;;;;;;11.90;10.70;;;30.80;99.90;;;;;;5050426;28;20410;-70
2023/09/03 08:52:06;;;;;;;18.53;16.53;;;31.70;99.20;;;;;;5043639;28;20409;-71
2023/09/03 08:54:32;;;;;;;23.27;17.60;;;32.00;91.40;;;;;;5052010;28;20398;-70
2023/09/03 08:56:59;;;;;;;13.90;12.40;;;32.30;85.00;;;;;;5051404;28;20474;-70
2023/09/03 08:59:24;;;;;;;20.00;17.90;;;33.30;83.70;;;;;;5052134;28;20167;-69
2023/09/03 09:01:53;;;;;;;15.30;13.90;;;33.80;71.10;;;;;;5051965;28;20405;-70
2023/09/03 09:04:19;;;;;;;13.73;12.30;;;34.00;69.30;;;;;;5051797;28;20198;-70
2023/09/03 09:06:46;;;;;;;14.57;13.00;;;34.90;67.40;;;;;;5051415;28;20472;-71
2023/09/03 09:09:14;;;;;;;14.53;12.77;;;34.90;62.80;;;;;;5051983;28;20405;-70
2023/09/03 09:11:45;;;;;;;17.07;15.37;;;35.00;60.30;;;;;;5051805;28;20398;-71
2023/09/03 09:14:54;;;;;;;23.57;17.73;;;34.50;58.50;;;;;;5051785;28;20417;-70
2023/09/03 09:17:19;;;;;;;16.03;14.23;;;34.50;58.80;;;;;;5050411;28;20512;-70
2023/09/03 09:19:45;;;;;;;15.00;13.57;;;35.00;58.80;;;;;;5051756;28;20496;-69
2023/09/03 09:22:11;;;;;;;13.30;11.93;;;35.90;57.80;;;;;;5051725;28;20178;-69
2023/09/03 09:24:46;;;;;;;8.47;7.67;;;37.00;55.60;;;;;;5051765;28;20198;-69
2023/09/03 09:27:17;;;;;;;8.33;7.23;;;38.90;55.10;;;;;;5051388;28;20188;-71
2023/09/03 09:29:44;;;;;;;10.27;9.27;;;40.40;52.50;;;;;;5051265;28;20492;-70
2023/09/03 09:32:23;;;;;;;7.63;7.03;;;41.70;48.50;;;;;;5051506;28;20444;-71
2023/09/03 09:34:49;;;;;;;11.23;10.23;;;42.20;45.50;;;;;;5051630;28;20539;-69
2023/09/03 09:37:15;;;;;;;7.40;6.80;;;43.40;43.80;;;;;;5051440;28;20416;-70
2023/09/03 09:39:48;;;;;;;12.97;11.67;;;44.60;42.60;;;;;;5051509;28;20424;-70
2023/09/03 09:42:18;;;;;;;14.03;12.73;;;44.50;38.00;;;;;;5051558;28;20914;-71
2023/09/03 09:44:56;;;;;;;8.17;7.40;;;43.70;38.20;;;;;;5051618;28;20461;-71
2023/09/03 09:47:22;;;;;;;15.47;14.17;;;44.50;40.20;;;;;;5051374;28;20416;-71
2023/09/03 09:49:48;;;;;;;13.77;12.47;;;45.20;37.10;;;;;;5051521;28;20754;-71
2023/09/03 09:52:15;;;;;;;8.10;7.30;;;44.40;36.00;;;;;;5051441;28;20409;-69
2023/09/03 09:54:41;;;;;;;10.43;9.63;;;45.00;37.70;;;;;;5046299;28;20183;-70
2023/09/03 09:57:11;;;;;;;7.63;6.93;;;46.10;36.70;;;;;;5042139;28;20425;-69
2023/09/03 09:59:39;;;;;;;11.93;10.83;;;47.30;36.10;;;;;;5051901;28;20455;-69
2023/09/03 10:02:14;;;;;;;7.70;7.10;;;47.80;33.00;;;;;;5055152;28;20905;-70
2023/09/03 10:04:45;;;;;;;11.93;10.93;;;48.30;33.50;;;;;;5055177;28;20430;-70
2023/09/03 10:07:11;;;;;;;9.70;8.90;;;48.00;31.10;;;;;;5053652;28;20429;-71
2023/09/03 10:09:41;;;;;;;11.07;6.53;;;49.00;32.70;;;;;;5055360;28;20391;-71
2023/09/03 10:12:08;;;;;;;10.70;9.90;;;49.80;31.80;;;;;;5054857;28;20391;-71
2023/09/03 10:14:34;;;;;;;8.20;7.60;;;49.60;30.90;;;;;;5063678;28;20473;-72
2023/09/03 10:17:02;;;;;;;6.77;6.27;;;49.50;31.30;;;;;;5052173;28;20429;-71
2023/09/03 10:19:34;;;;;;;12.43;11.43;;;50.00;31.40;;;;;;5052379;28;20396;-72
2023/09/03 10:22:01;;;;;;;10.93;10.10;;;50.40;29.10;;;;;;5041314;28;20394;-72
2023/09/03 10:24:29;;;;;;;13.37;12.27;;;50.00;28.60;;;;;;5054927;28;21000;-71
2023/09/03 10:26:59;;;;;;;8.07;7.47;;;48.40;28.80;;;;;;5054247;28;20496;-70
2023/09/03 10:29:27;;;;;;;6.97;6.47;;;48.40;29.90;;;;;;5043846;28;20404;-73
2023/09/03 10:31:54;;;;;;;8.47;7.87;;;48.40;30.30;;;;;;5053771;28;20806;-72
2023/09/03 10:34:20;;;;;;;8.67;7.97;;;47.70;29.80;;;;;;5054780;28;20897;-72
2023/09/03 10:37:08;;;;;;;12.00;11.00;;;48.00;30.40;;;;;;5054500;28;20420;-72
2023/09/03 10:39:35;;;;;;;11.50;10.60;;;48.70;29.50;;;;;;5054689;28;20224;-71
2023/09/03 10:42:18;;;;;;;7.70;7.10;;;48.70;28.60;;;;;;5054475;28;20403;-73
2023/09/03 10:44:51;;;;;;;7.13;6.63;;;49.20;29.30;;;;;;5047814;28;21999;-71
2023/09/03 10:47:18;;;;;;;13.23;12.13;;;50.60;29.70;;;;;;5048580;28;20403;-71
2023/09/03 10:49:48;;;;;;;9.67;8.93;;;50.90;27.40;;;;;;5045975;28;20400;-71
2023/09/03 10:52:32;;;;;;;5.97;5.57;;;50.50;27.20;;;;;;5054071;28;20425;-71
2023/09/03 10:55:16;;;;;;;7.70;7.20;;;51.60;28.30;;;;;;5054092;28;20391;-72
2023/09/03 10:57:46;;;;;;;7.13;6.63;;;53.00;27.30;;;;;;5053013;28;20387;-73
2023/09/03 11:00:15;;;;;;;6.20;5.80;;;54.00;26.90;;;;;;5052997;28;20380;-71
2023/09/03 11:02:41;;;;;;;7.07;6.57;;;54.40;26.20;;;;;;5053969;28;20926;-73
2023/09/03 11:05:10;;;;;;;6.03;5.70;;;54.80;25.70;;;;;;5053825;28;20424;-73
2023/09/03 11:07:36;;;;;;;9.60;8.80;;;55.50;25.90;;;;;;5054136;28;20503;-71
2023/09/03 11:10:24;;;;;;;7.07;6.57;;;54.80;24.50;;;;;;5054033;28;20407;-71
2023/09/03 11:12:51;;;;;;;6.23;5.83;;;54.30;25.00;;;;;;5053867;28;20191;-72
2023/09/03 11:15:18;;;;;;;9.13;8.33;;;54.60;25.50;;;;;;5053863;28;20742;-73
2023/09/03 11:17:56;;;;;;;8.10;7.50;;;54.60;23.90;;;;;;5053827;28;20937;-73
2023/09/03 11:20:35;;;;;;;5.80;5.40;;;53.40;23.20;;;;;;5054025;28;20488;-71
2023/09/03 11:23:03;;;;;;;7.00;6.50;;;53.90;24.80;;;;;;5053707;28;20419;-71
2023/09/03 11:25:37;;;;;;;5.93;5.53;;;53.70;24.10;;;;;;5053453;28;20922;-71
2023/09/03 11:28:07;;;;;;;5.03;4.73;;;54.60;24.80;;;;;;5053589;28;20372;-72
2023/09/03 11:30:34;;;;;;;6.60;6.00;;;55.60;25.00;;;;;;5053769;28;20401;-73
2023/09/03 11:33:00;;;;;;;7.20;6.70;;;55.90;23.00;;;;;;5053492;28;20395;-73
2023/09/03 11:35:25;;;;;;;6.93;6.43;;;55.40;22.40;;;;;;5053382;28;20401;-72
2023/09/03 11:37:53;;;;;;;7.17;6.67;;;55.30;22.90;;;;;;5053690;28;20401;-72
2023/09/03 11:40:19;;;;;;;6.90;6.50;;;53.70;22.90;;;;;;5053564;28;20167;-71
2023/09/03 11:42:48;;;;;;;5.47;5.17;;;53.50;23.30;;;;;;5053269;28;20474;-71
2023/09/03 11:45:14;;;;;;;4.90;4.60;;;52.50;22.90;;;;;;5044410;28;20414;-73
2023/09/03 11:47:50;;;;;;;6.37;5.70;;;51.60;23.10;;;;;;5034224;28;20397;-72
2023/09/03 11:50:17;;;;;;;4.70;4.40;;;50.40;23.30;;;;;;5044983;28;20170;-71
2023/09/03 11:52:53;;;;;;;4.30;4.00;;;50.10;24.50;;;;;;5050734;28;20438;-71
2023/09/03 11:55:20;;;;;;;4.10;3.80;;;49.80;24.00;;;;;;5047340;28;20413;-70
2023/09/03 11:57:47;;;;;;;4.57;4.27;;;48.80;23.50;;;;;;5053145;28;20520;-72
2023/09/03 12:00:13;;;;;;;5.67;5.10;;;48.10;23.90;;;;;;5053108;28;20388;-73
2023/09/03 12:02:42;;;;;;;4.97;4.57;;;47.40;23.80;;;;;;5052815;28;20403;-71
2023/09/03 12:05:09;;;;;;;4.47;4.17;;;46.70;24.00;;;;;;5049077;28;20869;-71
2023/09/03 12:07:35;;;;;;;3.00;2.80;;;46.00;24.50;;;;;;5045857;28;20459;-74
2023/09/03 12:10:00;;;;;;;4.60;4.30;;;46.00;25.80;;;;;;5055435;28;20392;-74
2023/09/03 12:12:27;;;;;;;3.87;3.57;;;46.00;26.20;;;;;;5053295;28;20198;-74
2023/09/03 12:14:52;;;;;;;4.13;3.80;;;46.00;27.00;;;;;;5054347;28;20171;-74
2023/09/03 12:17:25;;;;;;;3.57;3.37;;;46.00;27.40;;;;;;5054065;28;20420;-74
2023/09/03 12:19:51;;;;;;;4.00;3.70;;;46.30;28.00;;;;;;5046410;28;20549;-74
2023/09/03 12:22:19;;;;;;;3.40;3.20;;;46.60;27.40;;;;;;5045351;28;20434;-74
2023/09/03 12:24:48;;;;;;;3.70;3.47;;;46.90;27.80;;;;;;5051729;28;20456;-74
2023/09/03 12:27:14;;;;;;;4.20;3.83;;;47.10;27.40;;;;;;5054059;28;20890;-74
2023/09/03 12:29:40;;;;;;;3.80;3.50;;;47.10;26.30;;;;;;5053566;28;20451;-74
2023/09/03 12:32:07;;;;;;;3.60;3.40;;;47.10;26.70;;;;;;5052437;28;20195;-73
2023/09/03 12:34:34;;;;;;;4.33;3.93;;;47.00;26.90;;;;;;5052545;28;20439;-73